Aviation Digital Data Service (ADDS)

Output produced by METARs form (0158 UTC 26 April 2017)
found at http://www.aviationweather.gov/adds/metars/
 
METAR text: KVIH 260153Z AUTO 16011KT 10SM CLR 21/11 A2949 RMK AO2 SLP978 T02110111
Conditions at: KVIH (VICHY/ROLLA , MO, US) observed 0153 UTC 26 April 2017
Temperature: 21.1°C (70°F)
Dewpoint: 11.1°C (52°F) [RH = 53%]
Pressure (altimeter): 29.49 inches Hg (998.7 mb)
[Sea-level pressure: 997.8 mb]
Winds: from the SSE (160 degrees) at 13 MPH (11 knots; 5.7 m/s)
Visibility: 10 or more miles (16+ km)
Ceiling: at least 12,000 feet AGL
Clouds: sky clear below 12,000 feet AGL
Weather: automated observation with no human augmentation;
there may or may not be significant weather present at this time